Time;durP1;ratioP1;P1;durP2;ratioP2;P2;SDS_P1;SDS_P2;PMS_P1;PMS_P2;Temp;Humidity;BMP_temperature;BMP_pressure;BME280_temperature;BME280_humidity;BME280_pressure;Samples;Min_cycle;Max_cycle;Signal;HPM_P1;HPM_P2
2023/06/14 00:00:11;;;;;;;4.00;3.70;;;28.50;45.50;;;;;;5026815;28;20478;-67
2023/06/14 00:02:41;;;;;;;4.70;4.40;;;28.40;45.50;;;;;;5028674;28;20555;-69
2023/06/14 00:05:11;;;;;;;4.40;4.10;;;28.50;45.70;;;;;;5041181;28;20487;-67
2023/06/14 00:07:43;;;;;;;5.20;4.30;;;28.50;45.60;;;;;;5029259;28;20501;-67
2023/06/14 00:10:12;;;;;;;4.23;3.83;;;28.40;45.40;;;;;;5038162;28;20460;-67
2023/06/14 00:12:41;;;;;;;4.03;3.83;;;28.50;45.50;;;;;;5028316;28;20465;-67
2023/06/14 00:15:10;;;;;;;4.57;4.27;;;28.50;45.60;;;;;;5028830;28;20802;-67
2023/06/14 00:17:39;;;;;;;3.90;3.60;;;28.40;45.50;;;;;;5034059;28;20472;-69
2023/06/14 00:20:09;;;;;;;4.13;3.83;;;28.40;45.70;;;;;;5029938;28;20882;-68
2023/06/14 00:22:38;;;;;;;5.30;4.90;;;28.40;45.60;;;;;;5025460;28;20857;-67
2023/06/14 00:25:09;;;;;;;4.00;3.70;;;28.40;45.60;;;;;;5024575;28;20440;-68
2023/06/14 00:27:57;;;;;;;4.27;3.97;;;28.40;45.60;;;;;;5033996;28;20975;-68
2023/06/14 00:30:30;;;;;;;4.50;4.20;;;28.40;45.60;;;;;;5025079;28;20491;-67
2023/06/14 00:32:59;;;;;;;4.73;4.43;;;28.40;45.50;;;;;;5031495;28;20518;-67
2023/06/14 00:35:28;;;;;;;4.40;4.10;;;28.40;45.50;;;;;;5033692;28;20448;-67
2023/06/14 00:37:59;;;;;;;4.90;4.60;;;28.40;45.60;;;;;;5012421;28;20675;-67
2023/06/14 00:40:29;;;;;;;4.57;4.23;;;28.40;45.60;;;;;;5013741;28;20889;-67
2023/06/14 00:42:58;;;;;;;5.30;4.90;;;28.40;45.80;;;;;;5025884;28;20468;-67
2023/06/14 00:45:26;;;;;;;5.10;4.80;;;28.40;45.70;;;;;;5022984;28;20464;-67
2023/06/14 00:47:56;;;;;;;4.80;4.47;;;28.30;45.70;;;;;;5040431;28;20457;-67
2023/06/14 00:50:25;;;;;;;5.17;4.77;;;28.30;45.70;;;;;;5026165;28;20473;-67
2023/06/14 00:52:53;;;;;;;4.27;3.97;;;28.30;45.60;;;;;;5014830;28;20843;-67
2023/06/14 00:55:22;;;;;;;5.27;4.90;;;28.40;45.60;;;;;;5027760;28;20584;-67
2023/06/14 00:57:52;;;;;;;5.40;5.00;;;28.30;45.60;;;;;;5028039;28;20465;-67
2023/06/14 01:00:21;;;;;;;4.40;4.10;;;28.30;45.60;;;;;;5043985;28;20964;-67
2023/06/14 01:02:50;;;;;;;5.30;4.83;;;28.30;45.60;;;;;;5022766;28;20469;-68
2023/06/14 01:05:20;;;;;;;4.73;4.33;;;28.30;45.60;;;;;;5025013;28;20538;-68
2023/06/14 01:08:04;;;;;;;4.33;4.03;;;28.30;46.00;;;;;;5015341;28;20456;-67
2023/06/14 01:10:39;;;;;;;4.47;4.17;;;28.30;46.20;;;;;;5028780;28;20455;-67
2023/06/14 01:13:16;;;;;;;4.77;4.47;;;28.30;46.30;;;;;;5035072;28;20942;-68
2023/06/14 01:15:45;;;;;;;4.47;4.10;;;28.30;46.10;;;;;;5038262;28;20641;-68
2023/06/14 01:18:17;;;;;;;4.40;4.00;;;28.30;45.90;;;;;;5035866;28;20491;-68
2023/06/14 01:20:49;;;;;;;5.60;4.60;;;28.30;46.00;;;;;;5034264;28;20451;-67
2023/06/14 01:23:20;;;;;;;4.60;4.30;;;28.30;45.90;;;;;;5035811;28;20468;-68
2023/06/14 01:25:52;;;;;;;4.90;4.60;;;28.30;47.10;;;;;;5017618;28;20530;-67
2023/06/14 01:28:22;;;;;;;4.83;4.53;;;28.30;45.80;;;;;;5031724;28;20526;-68
2023/06/14 01:30:53;;;;;;;5.80;5.37;;;28.30;45.90;;;;;;5015561;28;20449;-68
2023/06/14 01:33:23;;;;;;;4.90;4.60;;;28.30;45.80;;;;;;5038676;28;20476;-66
2023/06/14 01:35:53;;;;;;;4.67;4.37;;;28.20;45.80;;;;;;5035530;28;20526;-67
2023/06/14 01:38:26;;;;;;;4.87;4.50;;;28.30;45.80;;;;;;5034731;28;20999;-66
2023/06/14 01:40:57;;;;;;;4.40;4.10;;;28.20;45.70;;;;;;5037021;28;21019;-67
2023/06/14 01:43:29;;;;;;;4.73;4.43;;;28.20;47.00;;;;;;5015346;28;20469;-67
2023/06/14 01:45:59;;;;;;;4.97;4.67;;;28.20;45.90;;;;;;5039402;28;20480;-66
2023/06/14 01:48:28;;;;;;;5.07;4.67;;;28.20;45.90;;;;;;5018864;28;20503;-67
2023/06/14 01:50:56;;;;;;;4.63;4.33;;;28.20;45.90;;;;;;5018154;28;20437;-67
2023/06/14 01:53:30;;;;;;;4.70;4.40;;;28.20;45.90;;;;;;5027396;28;20499;-67
2023/06/14 01:55:58;;;;;;;5.60;5.20;;;28.20;45.80;;;;;;5035774;28;20505;-67
2023/06/14 01:58:27;;;;;;;4.97;4.67;;;28.20;45.90;;;;;;5031624;28;20974;-67
2023/06/14 02:00:56;;;;;;;5.30;4.90;;;28.20;45.80;;;;;;5025729;28;20514;-67
2023/06/14 02:03:25;;;;;;;4.20;3.93;;;28.20;45.90;;;;;;5022159;28;20823;-67
2023/06/14 02:05:54;;;;;;;4.93;4.57;;;28.20;46.20;;;;;;5019861;28;20962;-67
2023/06/14 02:08:23;;;;;;;4.87;4.50;;;28.20;46.00;;;;;;5031765;28;20477;-68
2023/06/14 02:10:54;;;;;;;5.00;4.70;;;28.20;45.90;;;;;;5019056;28;20452;-67
2023/06/14 02:13:23;;;;;;;4.87;4.53;;;28.20;47.10;;;;;;5025998;28;20518;-66
2023/06/14 02:15:54;;;;;;;5.07;4.67;;;28.10;45.80;;;;;;5019491;28;20471;-68
2023/06/14 02:18:25;;;;;;;4.50;4.20;;;28.10;45.90;;;;;;5027451;28;20476;-67
2023/06/14 02:20:53;;;;;;;4.77;4.47;;;28.10;45.90;;;;;;5022061;28;20460;-68
2023/06/14 02:23:22;;;;;;;5.27;4.87;;;28.10;45.90;;;;;;5035651;28;20507;-67
2023/06/14 02:25:53;;;;;;;5.10;4.80;;;28.10;45.80;;;;;;5032838;28;20468;-67
2023/06/14 02:28:21;;;;;;;4.60;4.30;;;28.10;45.80;;;;;;5031134;28;20468;-67
2023/06/14 02:30:50;;;;;;;5.00;4.60;;;28.10;45.80;;;;;;5017895;28;20446;-67
2023/06/14 02:33:19;;;;;;;4.90;4.50;;;28.10;45.80;;;;;;5016422;28;20492;-66
2023/06/14 02:35:48;;;;;;;5.03;4.63;;;28.10;45.90;;;;;;5025848;28;20468;-68
2023/06/14 02:38:16;;;;;;;5.20;4.80;;;28.10;45.90;;;;;;5028088;28;20593;-67
2023/06/14 02:40:45;;;;;;;5.17;4.77;;;28.10;45.90;;;;;;5037939;28;20449;-67
2023/06/14 02:43:17;;;;;;;5.10;4.80;;;28.10;46.00;;;;;;5024693;28;20530;-67
2023/06/14 02:45:45;;;;;;;4.53;4.23;;;28.00;47.20;;;;;;5027201;28;21049;-67
2023/06/14 02:48:15;;;;;;;5.63;5.13;;;28.10;46.20;;;;;;5039805;28;20840;-67
2023/06/14 02:50:43;;;;;;;5.10;4.70;;;28.00;46.00;;;;;;5017744;28;20540;-68
2023/06/14 02:53:12;;;;;;;5.70;5.30;;;28.00;46.20;;;;;;5025419;28;20482;-67
2023/06/14 02:55:40;;;;;;;4.70;4.40;;;28.00;46.00;;;;;;5037598;28;20814;-67
2023/06/14 02:58:09;;;;;;;5.60;5.20;;;28.00;46.10;;;;;;5020401;28;20470;-68
2023/06/14 03:00:40;;;;;;;4.60;4.30;;;28.00;46.00;;;;;;5019332;28;20857;-67
2023/06/14 03:03:13;;;;;;;5.33;4.83;;;28.00;46.10;;;;;;5020270;28;20471;-67
2023/06/14 03:05:49;;;;;;;5.23;4.87;;;28.00;46.20;;;;;;5016810;28;20461;-67
2023/06/14 03:08:21;;;;;;;4.50;4.20;;;28.00;46.40;;;;;;5008208;28;20503;-68
2023/06/14 03:10:52;;;;;;;4.97;4.60;;;28.00;46.20;;;;;;5028376;28;20441;-67
2023/06/14 03:13:22;;;;;;;4.90;4.60;;;28.00;46.20;;;;;;5005241;28;20478;-67
2023/06/14 03:15:57;;;;;;;4.90;4.50;;;28.00;46.20;;;;;;5023483;28;20461;-67
2023/06/14 03:18:26;;;;;;;5.40;5.00;;;28.00;46.30;;;;;;5031887;28;20481;-67
2023/06/14 03:20:57;;;;;;;5.23;4.83;;;27.90;46.20;;;;;;5032125;28;20491;-67
2023/06/14 03:23:28;;;;;;;4.90;4.60;;;27.90;46.20;;;;;;5029490;28;20852;-67
2023/06/14 03:25:56;;;;;;;5.50;5.20;;;27.90;46.20;;;;;;5029229;28;20467;-67
2023/06/14 03:28:25;;;;;;;5.27;4.87;;;27.90;46.30;;;;;;5025197;28;20479;-67
2023/06/14 03:30:56;;;;;;;5.37;4.97;;;27.90;46.30;;;;;;5017428;28;20429;-66
2023/06/14 03:33:26;;;;;;;5.43;5.13;;;27.90;46.30;;;;;;5039040;28;20590;-67
2023/06/14 03:35:56;;;;;;;4.90;4.60;;;27.90;46.30;;;;;;5050172;28;20463;-67
2023/06/14 03:38:25;;;;;;;5.10;4.70;;;27.90;46.30;;;;;;5016653;28;20509;-67
2023/06/14 03:40:54;;;;;;;5.33;4.90;;;27.90;46.50;;;;;;5025676;28;20472;-68
2023/06/14 03:43:22;;;;;;;4.70;4.40;;;27.90;46.40;;;;;;5031583;28;20561;-67
2023/06/14 03:45:51;;;;;;;6.57;5.97;;;27.90;46.40;;;;;;5025052;28;20472;-66
2023/06/14 03:48:22;;;;;;;5.00;4.60;;;27.90;46.70;;;;;;5040241;28;20461;-66
2023/06/14 03:50:51;;;;;;;5.00;4.50;;;27.80;46.40;;;;;;5016332;28;20433;-66
2023/06/14 03:53:20;;;;;;;4.80;4.50;;;27.90;46.40;;;;;;5005097;28;20492;-67
2023/06/14 03:55:52;;;;;;;4.60;4.30;;;27.80;46.40;;;;;;5022542;28;20547;-67
2023/06/14 03:58:28;;;;;;;5.97;5.10;;;27.80;46.50;;;;;;4991191;28;20483;-66
2023/06/14 04:00:57;;;;;;;4.60;4.30;;;27.80;46.50;;;;;;5012795;28;21035;-66
2023/06/14 04:03:29;;;;;;;5.40;5.00;;;27.80;46.70;;;;;;5022136;28;20477;-67
2023/06/14 04:05:59;;;;;;;5.33;4.93;;;27.80;46.60;;;;;;5035753;28;20496;-66
2023/06/14 04:08:28;;;;;;;5.47;5.13;;;27.80;46.70;;;;;;5023378;28;20465;-66
2023/06/14 04:10:59;;;;;;;5.10;4.80;;;27.80;46.60;;;;;;4995994;28;20476;-67
2023/06/14 04:13:27;;;;;;;4.73;4.43;;;27.80;46.70;;;;;;5001857;28;20472;-67
2023/06/14 04:15:56;;;;;;;4.73;4.43;;;27.80;46.70;;;;;;5018985;28;20456;-67
2023/06/14 04:18:32;;;;;;;5.67;5.27;;;27.80;46.70;;;;;;5001813;28;20475;-67
2023/06/14 04:21:01;;;;;;;4.87;4.53;;;27.80;46.70;;;;;;5011984;28;20459;-67
2023/06/14 04:23:32;;;;;;;4.53;4.20;;;27.70;46.70;;;;;;5018211;28;20469;-67
2023/06/14 04:26:05;;;;;;;5.00;4.60;;;27.80;46.80;;;;;;5019911;28;20519;-67
2023/06/14 04:28:37;;;;;;;5.40;5.00;;;27.70;46.90;;;;;;5038335;28;20436;-67
2023/06/14 04:31:08;;;;;;;5.43;4.80;;;27.70;46.80;;;;;;5023806;28;20525;-66
2023/06/14 04:33:43;;;;;;;4.97;4.67;;;27.70;46.80;;;;;;5014854;28;20875;-67
2023/06/14 04:36:17;;;;;;;5.40;4.90;;;27.70;46.80;;;;;;5019175;28;20459;-67
2023/06/14 04:38:49;;;;;;;4.63;4.33;;;27.70;46.90;;;;;;5012382;28;20563;-67
2023/06/14 04:41:19;;;;;;;4.93;4.63;;;27.70;46.90;;;;;;5032486;28;20439;-67
2023/06/14 04:43:48;;;;;;;4.60;4.30;;;27.70;47.00;;;;;;5027363;28;20967;-67
2023/06/14 04:46:18;;;;;;;5.00;4.70;;;27.70;47.00;;;;;;5034292;28;20491;-65
2023/06/14 04:48:50;;;;;;;4.83;4.43;;;27.60;47.00;;;;;;5043398;28;21040;-68
2023/06/14 04:51:20;;;;;;;5.07;4.70;;;27.70;47.00;;;;;;5012526;28;21014;-67
2023/06/14 04:53:49;;;;;;;5.03;4.63;;;27.70;47.00;;;;;;5022400;28;20932;-65
2023/06/14 04:56:19;;;;;;;6.03;4.90;;;27.60;47.00;;;;;;5024801;28;20480;-68
2023/06/14 04:58:47;;;;;;;4.93;4.57;;;27.60;47.30;;;;;;5017516;28;20470;-68
2023/06/14 05:01:16;;;;;;;5.60;5.10;;;27.60;47.50;;;;;;5028277;28;20428;-67
2023/06/14 05:03:44;;;;;;;6.00;5.60;;;27.60;47.30;;;;;;5020799;28;20492;-66
2023/06/14 05:06:15;;;;;;;4.80;4.47;;;27.60;47.20;;;;;;5028682;28;20468;-67
2023/06/14 05:08:44;;;;;;;5.10;4.70;;;27.60;47.40;;;;;;5038205;28;21008;-67
2023/06/14 05:11:12;;;;;;;5.20;4.80;;;27.60;47.30;;;;;;5020101;28;20453;-67
2023/06/14 05:13:41;;;;;;;6.07;5.67;;;27.60;47.50;;;;;;5032286;28;20444;-67
2023/06/14 05:16:12;;;;;;;4.97;4.67;;;27.60;47.30;;;;;;5019325;28;20468;-67
2023/06/14 05:18:41;;;;;;;5.23;4.73;;;27.60;47.20;;;;;;5034815;28;20745;-66
2023/06/14 05:21:09;;;;;;;5.37;4.97;;;27.60;47.10;;;;;;5022646;28;20491;-67
2023/06/14 05:23:39;;;;;;;5.50;5.00;;;27.60;47.10;;;;;;5042826;28;20451;-65
2023/06/14 05:26:08;;;;;;;4.83;4.43;;;27.60;47.10;;;;;;5017630;28;20472;-67
2023/06/14 05:28:36;;;;;;;5.30;4.90;;;27.60;47.00;;;;;;5026235;28;20894;-66
2023/06/14 05:31:05;;;;;;;5.00;4.60;;;27.60;47.00;;;;;;5029750;28;20946;-67
2023/06/14 05:33:33;;;;;;;4.87;4.57;;;27.60;46.90;;;;;;5022492;28;20473;-66
2023/06/14 05:36:02;;;;;;;6.40;5.90;;;27.60;46.90;;;;;;5012066;28;20496;-67
2023/06/14 05:38:31;;;;;;;5.17;4.77;;;27.60;46.90;;;;;;5024383;28;20498;-68
2023/06/14 05:41:01;;;;;;;5.63;5.23;;;27.60;47.10;;;;;;5034656;28;20778;-66
2023/06/14 05:43:29;;;;;;;4.70;4.40;;;27.60;46.80;;;;;;5007630;28;20475;-67
2023/06/14 05:45:58;;;;;;;5.50;5.07;;;27.60;46.70;;;;;;4993203;28;1195445;-67
2023/06/14 05:48:26;;;;;;;5.50;5.03;;;27.60;46.80;;;;;;5039895;28;20272;-67
2023/06/14 05:50:55;;;;;;;7.13;6.63;;;27.60;46.70;;;;;;5018920;28;20503;-67
2023/06/14 05:53:24;;;;;;;6.50;5.90;;;27.60;41.20;;;;;;5022420;28;20843;-66
2023/06/14 05:55:54;;;;;;;6.33;5.77;;;27.30;43.50;;;;;;5041481;28;20518;-65
2023/06/14 05:58:24;;;;;;;6.53;5.97;;;27.30;44.30;;;;;;5017511;28;20472;-66
2023/06/14 06:00:53;;;;;;;5.90;5.50;;;27.30;44.50;;;;;;5023608;28;21070;-65
2023/06/14 06:03:22;;;;;;;6.50;6.00;;;27.30;44.80;;;;;;5009131;28;20488;-66
2023/06/14 06:05:51;;;;;;;6.43;5.93;;;27.40;44.50;;;;;;5042284;28;20468;-67
2023/06/14 06:08:20;;;;;;;5.97;5.57;;;27.40;44.60;;;;;;5039004;28;20487;-66
2023/06/14 06:10:49;;;;;;;6.07;5.50;;;27.40;44.50;;;;;;5006289;28;20528;-67
2023/06/14 06:13:18;;;;;;;5.87;5.37;;;27.40;44.70;;;;;;5016807;28;20538;-67
2023/06/14 06:15:48;;;;;;;6.00;5.60;;;27.50;44.70;;;;;;5037126;28;20878;-67
2023/06/14 06:18:16;;;;;;;6.60;6.10;;;27.40;44.60;;;;;;5034932;28;20480;-66
2023/06/14 06:20:47;;;;;;;5.97;5.50;;;27.40;45.50;;;;;;5019664;28;20535;-67
2023/06/14 06:23:15;;;;;;;5.30;4.80;;;27.50;44.80;;;;;;5021001;28;20463;-67
2023/06/14 06:25:44;;;;;;;6.07;5.57;;;27.40;44.90;;;;;;5022582;28;20826;-65
2023/06/14 06:28:12;;;;;;;6.30;5.70;;;27.50;44.90;;;;;;5023951;28;21344;-67
2023/06/14 06:30:41;;;;;;;6.03;5.53;;;27.40;45.10;;;;;;5017963;28;20434;-67
2023/06/14 06:33:11;;;;;;;7.03;5.37;;;27.50;45.10;;;;;;5003935;28;21005;-67
2023/06/14 06:35:40;;;;;;;5.27;4.77;;;27.50;45.00;;;;;;5032995;28;20496;-66
2023/06/14 06:38:09;;;;;;;4.93;4.53;;;27.50;44.70;;;;;;5019508;28;20883;-66
2023/06/14 06:40:38;;;;;;;5.27;4.87;;;27.50;44.50;;;;;;5024199;28;20861;-66
2023/06/14 06:43:07;;;;;;;5.23;4.80;;;27.50;44.50;;;;;;5017964;28;20558;-67
2023/06/14 06:45:42;;;;;;;5.40;5.00;;;27.40;44.80;;;;;;5020734;28;20478;-66
2023/06/14 06:48:12;;;;;;;6.10;5.70;;;27.40;44.90;;;;;;5020315;28;21024;-65
2023/06/14 06:50:40;;;;;;;5.53;5.03;;;27.40;44.80;;;;;;5033749;28;20622;-66
2023/06/14 06:53:09;;;;;;;5.43;5.03;;;27.40;44.80;;;;;;5025625;28;20833;-66
2023/06/14 06:55:38;;;;;;;5.37;4.97;;;27.40;44.80;;;;;;5038079;28;21150;-66
2023/06/14 06:58:06;;;;;;;5.50;5.10;;;27.40;44.80;;;;;;5019529;28;20476;-66
2023/06/14 07:00:35;;;;;;;5.63;4.87;;;27.40;44.30;;;;;;5020776;28;20465;-71
2023/06/14 07:03:04;;;;;;;5.60;5.20;;;27.40;44.00;;;;;;5023116;28;20866;-69
2023/06/14 07:05:34;;;;;;;4.90;4.60;;;27.40;44.40;;;;;;5022440;28;20938;-71
2023/06/14 07:08:03;;;;;;;5.10;4.70;;;27.40;44.00;;;;;;5010324;28;20498;-71
2023/06/14 07:10:31;;;;;;;5.10;4.70;;;27.40;44.60;;;;;;5033707;28;20512;-71
2023/06/14 07:13:00;;;;;;;5.80;5.40;;;27.40;44.60;;;;;;5016279;28;20560;-71
2023/06/14 07:15:29;;;;;;;5.50;5.10;;;27.40;44.80;;;;;;5025138;28;20424;-71
2023/06/14 07:17:59;;;;;;;5.80;5.33;;;27.40;44.00;;;;;;5018517;28;20487;-71
2023/06/14 07:20:28;;;;;;;5.20;4.80;;;27.40;43.30;;;;;;5024886;28;20571;-71
2023/06/14 07:22:58;;;;;;;5.43;5.03;;;27.40;43.50;;;;;;5027182;28;20481;-71
2023/06/14 07:25:26;;;;;;;5.47;4.93;;;27.40;44.40;;;;;;5018597;28;20457;-72
2023/06/14 07:27:55;;;;;;;5.80;5.30;;;27.40;44.20;;;;;;5021920;28;20461;-72
2023/06/14 07:30:26;;;;;;;5.20;4.80;;;27.40;43.90;;;;;;5036208;28;20452;-72
2023/06/14 07:32:55;;;;;;;4.60;4.30;;;27.40;43.60;;;;;;5016894;28;20894;-69
2023/06/14 07:35:24;;;;;;;5.43;5.03;;;27.40;43.80;;;;;;5044759;28;20442;-71
2023/06/14 07:37:53;;;;;;;4.90;4.50;;;27.40;44.10;;;;;;5020903;28;21001;-71
2023/06/14 07:40:23;;;;;;;5.07;4.57;;;27.40;43.40;;;;;;5038313;28;20471;-71
2023/06/14 07:42:54;;;;;;;5.37;4.97;;;27.40;43.50;;;;;;5022602;28;20478;-71
2023/06/14 07:45:22;;;;;;;5.20;4.80;;;27.40;43.70;;;;;;5037818;28;21055;-72
2023/06/14 07:47:51;;;;;;;5.20;4.80;;;27.40;43.90;;;;;;5033097;28;20452;-72
2023/06/14 07:50:20;;;;;;;4.50;4.20;;;27.40;43.50;;;;;;5020773;28;20871;-70
2023/06/14 07:52:49;;;;;;;4.80;4.40;;;27.40;43.70;;;;;;5030503;28;20487;-71
2023/06/14 07:55:17;;;;;;;5.07;4.77;;;27.40;43.80;;;;;;5025354;28;20479;-71
2023/06/14 07:57:49;;;;;;;4.83;4.43;;;27.40;44.40;;;;;;5020882;28;20465;-71
2023/06/14 08:00:20;;;;;;;4.50;4.20;;;27.40;44.20;;;;;;5021537;28;20842;-71
2023/06/14 08:02:48;;;;;;;5.93;4.47;;;27.40;43.00;;;;;;5023504;28;20463;-71
2023/06/14 08:05:17;;;;;;;4.67;4.37;;;27.40;42.60;;;;;;5041224;28;20546;-71
2023/06/14 08:07:46;;;;;;;5.00;4.60;;;27.40;44.00;;;;;;5025146;28;20500;-71
2023/06/14 08:10:15;;;;;;;4.97;4.57;;;27.40;43.90;;;;;;5022033;28;20580;-72
2023/06/14 08:12:44;;;;;;;4.80;4.50;;;27.40;43.50;;;;;;5020716;28;20477;-71
2023/06/14 08:15:14;;;;;;;4.67;4.37;;;27.40;44.00;;;;;;4999868;28;20440;-71
2023/06/14 08:17:44;;;;;;;5.30;4.90;;;27.40;43.50;;;;;;5019507;28;20464;-71
2023/06/14 08:20:15;;;;;;;4.80;4.40;;;27.40;44.00;;;;;;5018863;28;20825;-71
2023/06/14 08:22:46;;;;;;;4.83;4.43;;;27.40;43.60;;;;;;5028014;28;20464;-65
2023/06/14 08:25:14;;;;;;;4.23;3.90;;;27.30;43.70;;;;;;5024059;28;20493;-66
2023/06/14 08:27:44;;;;;;;5.70;5.20;;;27.40;43.40;;;;;;5019781;28;20561;-66
2023/06/14 08:30:17;;;;;;;5.17;4.67;;;27.30;43.60;;;;;;5011859;28;20445;-66
2023/06/14 08:32:45;;;;;;;5.30;4.97;;;27.30;43.30;;;;;;5015818;28;20476;-67
2023/06/14 08:35:20;;;;;;;4.57;4.27;;;27.40;43.60;;;;;;5020919;28;20456;-64
2023/06/14 08:37:50;;;;;;;4.67;4.37;;;27.30;43.40;;;;;;5023483;28;20486;-66
2023/06/14 08:40:21;;;;;;;4.93;4.63;;;27.30;43.90;;;;;;5029828;28;20942;-66
2023/06/14 08:42:53;;;;;;;4.03;3.73;;;27.30;43.50;;;;;;5028833;28;20477;-66
2023/06/14 08:45:24;;;;;;;4.73;4.43;;;27.30;43.20;;;;;;5020828;28;20945;-67
2023/06/14 08:47:59;;;;;;;4.60;4.20;;;27.30;43.10;;;;;;5032314;28;20465;-66
2023/06/14 08:50:30;;;;;;;4.70;4.30;;;27.30;42.80;;;;;;5033638;28;20499;-65
2023/06/14 08:53:02;;;;;;;6.00;5.00;;;27.30;43.40;;;;;;5035940;28;20877;-66
2023/06/14 08:55:34;;;;;;;4.40;4.10;;;27.30;43.50;;;;;;5022049;28;20542;-67
2023/06/14 08:58:05;;;;;;;4.90;4.53;;;27.30;42.60;;;;;;5023346;28;20740;-66
2023/06/14 09:00:37;;;;;;;4.60;4.27;;;27.30;42.40;;;;;;5027458;28;20443;-65
2023/06/14 09:03:12;;;;;;;4.70;4.37;;;27.30;44.20;;;;;;5041271;28;20502;-66
2023/06/14 09:05:42;;;;;;;4.37;4.03;;;27.30;42.80;;;;;;5010294;28;20473;-67
2023/06/14 09:08:10;;;;;;;5.23;4.20;;;27.30;43.20;;;;;;5013439;28;20475;-67
2023/06/14 09:10:41;;;;;;;4.67;4.07;;;27.30;43.10;;;;;;5024764;28;20442;-67
2023/06/14 09:13:10;;;;;;;4.57;4.17;;;27.30;42.90;;;;;;5022389;28;20564;-67
2023/06/14 09:15:40;;;;;;;4.33;3.93;;;27.30;42.70;;;;;;5030568;28;20454;-66
2023/06/14 09:18:09;;;;;;;4.20;3.90;;;27.30;42.70;;;;;;5033502;28;20480;-67
2023/06/14 09:20:38;;;;;;;4.07;3.77;;;27.30;42.00;;;;;;5025192;28;20452;-67
2023/06/14 09:23:07;;;;;;;3.63;3.43;;;27.30;42.00;;;;;;5025972;28;20513;-67
2023/06/14 09:25:44;;;;;;;3.70;3.40;;;27.30;41.30;;;;;;5036369;28;20535;-71
2023/06/14 09:28:13;;;;;;;4.10;3.80;;;27.30;42.90;;;;;;5022543;28;21004;-71
2023/06/14 09:30:43;;;;;;;4.27;3.87;;;27.30;44.00;;;;;;5036896;28;20480;-72
2023/06/14 09:33:17;;;;;;;4.80;3.97;;;27.30;41.80;;;;;;5040190;28;20565;-72
2023/06/14 09:35:47;;;;;;;4.40;4.00;;;27.30;43.20;;;;;;5020227;28;20480;-71
2023/06/14 09:38:15;;;;;;;3.80;3.50;;;27.30;42.60;;;;;;5022053;28;20486;-71
2023/06/14 09:40:44;;;;;;;4.40;4.00;;;27.30;42.70;;;;;;5040356;28;20448;-72
2023/06/14 09:43:12;;;;;;;4.00;3.70;;;27.30;42.10;;;;;;5023164;28;20480;-69
2023/06/14 09:45:41;;;;;;;4.37;4.07;;;27.30;43.20;;;;;;5026120;28;20471;-71
2023/06/14 09:48:11;;;;;;;4.07;3.77;;;27.30;42.60;;;;;;5043641;28;20547;-71
2023/06/14 09:50:41;;;;;;;4.67;4.20;;;27.30;43.50;;;;;;5025685;28;20447;-70
2023/06/14 09:53:12;;;;;;;4.50;4.13;;;27.30;43.70;;;;;;5039242;28;20830;-66
2023/06/14 09:55:42;;;;;;;3.90;3.57;;;27.30;43.70;;;;;;5031217;28;20490;-66
2023/06/14 09:58:13;;;;;;;3.97;3.67;;;27.30;42.20;;;;;;5020632;28;20498;-66
2023/06/14 10:00:43;;;;;;;3.90;3.60;;;27.30;44.00;;;;;;5017637;28;20799;-66
2023/06/14 10:03:22;;;;;;;3.90;3.60;;;27.30;42.90;;;;;;5022600;28;20570;-66
2023/06/14 10:05:52;;;;;;;3.60;3.40;;;27.30;41.10;;;;;;5025776;28;20562;-66
2023/06/14 10:08:25;;;;;;;4.10;3.17;;;27.30;42.90;;;;;;5033935;28;20539;-66
2023/06/14 10:10:56;;;;;;;2.90;2.70;;;27.30;42.40;;;;;;5031506;28;20996;-66
2023/06/14 10:13:26;;;;;;;3.97;3.67;;;27.30;42.30;;;;;;5044223;28;20460;-65
2023/06/14 10:16:01;;;;;;;3.93;3.43;;;27.30;42.70;;;;;;5037702;28;20721;-66
2023/06/14 10:18:37;;;;;;;3.17;2.97;;;27.30;41.00;;;;;;5014144;28;20503;-66
2023/06/14 10:21:14;;;;;;;3.63;3.30;;;27.30;41.00;;;;;;5022109;28;20971;-66
2023/06/14 10:23:45;;;;;;;4.03;3.73;;;27.30;42.30;;;;;;5031072;28;20460;-65
2023/06/14 10:26:22;;;;;;;3.83;3.50;;;27.30;41.50;;;;;;5025733;28;20975;-66
2023/06/14 10:29:01;;;;;;;3.93;3.63;;;27.30;43.50;;;;;;5024526;28;20467;-65
2023/06/14 10:31:43;;;;;;;3.67;3.40;;;27.30;43.40;;;;;;5025345;28;20964;-67
2023/06/14 10:34:23;;;;;;;3.63;3.40;;;27.30;41.40;;;;;;5014689;28;20987;-66
2023/06/14 10:37:06;;;;;;;3.30;3.10;;;27.30;42.80;;;;;;5021503;28;20551;-66
2023/06/14 10:39:41;;;;;;;3.70;3.43;;;27.30;43.90;;;;;;5026914;28;20514;-67
2023/06/14 10:42:10;;;;;;;3.80;3.60;;;27.30;43.80;;;;;;5023347;28;20471;-65
2023/06/14 10:44:41;;;;;;;4.00;3.70;;;27.30;43.20;;;;;;5039899;28;20451;-67
2023/06/14 10:47:12;;;;;;;3.57;3.27;;;27.30;44.20;;;;;;5037654;28;20468;-66
2023/06/14 10:49:45;;;;;;;4.10;3.80;;;27.30;42.70;;;;;;5025143;28;20599;-64
2023/06/14 10:52:18;;;;;;;3.80;3.47;;;27.30;43.90;;;;;;5026995;28;20523;-67
2023/06/14 10:55:01;;;;;;;3.60;3.30;;;27.30;43.50;;;;;;5036067;28;20738;-66
2023/06/14 10:57:31;;;;;;;4.30;3.47;;;27.30;42.90;;;;;;5022337;28;20472;-65
2023/06/14 11:00:15;;;;;;;3.80;3.50;;;27.30;42.60;;;;;;5027674;28;20490;-65
2023/06/14 11:03:21;;;;;;;3.23;2.93;;;27.30;42.20;;;;;;5022167;28;20473;-65
2023/06/14 11:05:53;;;;;;;3.50;3.30;;;27.40;41.00;;;;;;5019186;28;20982;-71
2023/06/14 11:08:41;;;;;;;3.67;3.43;;;27.30;42.50;;;;;;5034894;28;20487;-71
2023/06/14 11:11:14;;;;;;;3.83;3.57;;;27.40;43.40;;;;;;5031296;28;20443;-71
2023/06/14 11:13:45;;;;;;;3.20;3.00;;;27.40;43.20;;;;;;4999218;28;20458;-72
2023/06/14 11:16:18;;;;;;;3.20;3.00;;;27.40;43.40;;;;;;5026437;28;20481;-70
2023/06/14 11:18:49;;;;;;;3.77;3.47;;;27.40;44.20;;;;;;5025803;28;20452;-72
2023/06/14 11:21:19;;;;;;;3.33;3.13;;;27.30;43.60;;;;;;5018012;28;20527;-72
2023/06/14 11:23:52;;;;;;;3.67;3.40;;;27.40;43.90;;;;;;5016256;28;20882;-71
2023/06/14 11:26:34;;;;;;;2.90;2.70;;;27.30;42.70;;;;;;5026753;28;21063;-71
2023/06/14 11:29:02;;;;;;;3.50;3.20;;;27.40;43.10;;;;;;5033262;28;20451;-71
2023/06/14 11:31:31;;;;;;;3.53;3.23;;;27.40;43.40;;;;;;5039962;28;20444;-71
2023/06/14 11:34:01;;;;;;;3.00;2.80;;;27.30;41.00;;;;;;5012562;28;20437;-70
2023/06/14 11:36:32;;;;;;;3.90;3.60;;;27.40;42.10;;;;;;5049347;28;20468;-71
2023/06/14 11:39:02;;;;;;;3.80;3.50;;;27.40;43.30;;;;;;5021582;28;20451;-71
2023/06/14 11:41:37;;;;;;;3.27;3.07;;;27.40;42.70;;;;;;5034357;28;20436;-71
2023/06/14 11:44:06;;;;;;;3.60;3.40;;;27.40;44.30;;;;;;5040387;28;21059;-71
2023/06/14 11:46:36;;;;;;;3.23;3.03;;;27.40;43.60;;;;;;5022707;28;20468;-72
2023/06/14 11:49:08;;;;;;;3.50;3.20;;;27.40;44.00;;;;;;5025306;28;20615;-71
2023/06/14 11:51:39;;;;;;;3.03;2.83;;;27.40;43.70;;;;;;5001694;28;20457;-71
2023/06/14 11:54:09;;;;;;;4.13;3.60;;;27.40;44.30;;;;;;5025927;28;20605;-71
2023/06/14 11:56:38;;;;;;;3.47;3.27;;;27.40;44.80;;;;;;5025855;28;20512;-71
2023/06/14 11:59:07;;;;;;;3.53;3.23;;;27.40;44.30;;;;;;5025273;28;20443;-71
2023/06/14 12:01:39;;;;;;;3.33;3.13;;;27.40;43.90;;;;;;5027203;28;20448;-72
2023/06/14 12:04:08;;;;;;;3.43;3.13;;;27.40;44.00;;;;;;5031758;28;20784;-70
2023/06/14 12:06:39;;;;;;;3.80;3.50;;;27.40;44.60;;;;;;5038003;28;20851;-72
2023/06/14 12:09:12;;;;;;;3.10;2.90;;;27.40;45.10;;;;;;5010136;28;20441;-72
2023/06/14 12:11:42;;;;;;;3.37;3.07;;;27.40;45.30;;;;;;5033050;28;20535;-71
2023/06/14 12:14:11;;;;;;;3.27;2.87;;;27.40;44.80;;;;;;5037850;28;20441;-70
2023/06/14 12:16:41;;;;;;;3.03;2.83;;;27.40;44.50;;;;;;5016530;28;20480;-70
2023/06/14 12:19:15;;;;;;;3.60;3.30;;;27.40;44.90;;;;;;5024593;28;20444;-72
2023/06/14 12:21:48;;;;;;;3.30;3.10;;;27.40;44.80;;;;;;5026916;28;20498;-71
2023/06/14 12:24:18;;;;;;;2.90;2.60;;;27.40;44.20;;;;;;5026955;28;20487;-72
2023/06/14 12:26:47;;;;;;;3.13;2.93;;;27.40;44.70;;;;;;5021586;28;20863;-71
2023/06/14 12:29:15;;;;;;;3.67;3.40;;;27.40;45.10;;;;;;5021762;28;20445;-71
2023/06/14 12:31:44;;;;;;;3.83;3.30;;;27.40;45.30;;;;;;5025874;28;20450;-64
2023/06/14 12:34:12;;;;;;;3.00;2.80;;;27.40;44.10;;;;;;5021745;28;20448;-66
2023/06/14 12:36:44;;;;;;;2.93;2.73;;;27.40;43.50;;;;;;5022516;28;20484;-67
2023/06/14 12:39:15;;;;;;;2.87;2.67;;;27.40;43.30;;;;;;5005102;28;20959;-65
2023/06/14 12:41:43;;;;;;;3.20;3.00;;;27.40;42.90;;;;;;5011127;28;20440;-67
2023/06/14 12:44:13;;;;;;;3.43;3.13;;;27.50;43.60;;;;;;5021295;28;20975;-67
2023/06/14 12:46:42;;;;;;;3.43;3.23;;;27.50;43.50;;;;;;5017388;28;20465;-67
2023/06/14 12:49:12;;;;;;;3.33;3.13;;;27.40;43.20;;;;;;5021172;28;20539;-67
2023/06/14 12:51:41;;;;;;;3.67;2.90;;;27.50;44.50;;;;;;5038716;28;20475;-67
2023/06/14 12:54:10;;;;;;;3.43;3.13;;;27.40;39.70;;;;;;5022907;28;20425;-67
2023/06/14 12:56:41;;;;;;;3.30;3.00;;;27.30;41.00;;;;;;5024334;28;20476;-66
2023/06/14 12:59:10;;;;;;;3.40;3.10;;;27.30;41.60;;;;;;5030732;28;20535;-69
2023/06/14 13:01:39;;;;;;;3.30;3.10;;;27.40;41.00;;;;;;5032643;28;20444;-68
2023/06/14 13:04:08;;;;;;;3.00;2.80;;;27.40;42.70;;;;;;5026226;28;20859;-68